createdAt,value
2022-07-26T00:00:47.921Z,9.10
2022-07-26T00:05:46.080Z,9.30
2022-07-26T00:08:16.497Z,10.00
2022-07-26T00:10:48.336Z,10.32
2022-07-26T00:13:19.425Z,9.80
2022-07-26T00:15:52.207Z,10.60
2022-07-26T00:18:22.004Z,9.93
2022-07-26T00:20:51.351Z,9.80
2022-07-26T00:23:21.411Z,9.70
2022-07-26T00:25:50.574Z,10.38
2022-07-26T00:28:19.796Z,9.70
2022-07-26T00:30:50.898Z,10.30
2022-07-26T00:33:20.101Z,10.43
2022-07-26T00:35:49.439Z,10.38
2022-07-26T00:38:18.812Z,9.93
2022-07-26T00:40:47.928Z,10.38
2022-07-26T00:43:17.122Z,9.80
2022-07-26T00:45:46.630Z,10.48
2022-07-26T00:48:17.842Z,10.68
2022-07-26T00:50:50.718Z,10.15
2022-07-26T00:53:21.989Z,10.57
2022-07-26T00:55:52.298Z,10.10
2022-07-26T00:58:21.468Z,11.38
2022-07-26T01:00:50.565Z,11.15
2022-07-26T01:03:21.776Z,10.88
2022-07-26T01:05:51.235Z,10.40
2022-07-26T01:08:20.625Z,11.43
2022-07-26T01:10:49.912Z,11.43
2022-07-26T01:13:21.781Z,11.65
2022-07-26T01:15:51.875Z,10.15
2022-07-26T01:18:23.056Z,10.75
2022-07-26T01:20:54.715Z,10.80
2022-07-26T01:23:25.966Z,10.40
2022-07-26T01:25:55.778Z,10.60
2022-07-26T01:28:26.019Z,10.55
2022-07-26T01:30:55.239Z,10.32
2022-07-26T01:33:27.883Z,11.10
2022-07-26T01:35:57.291Z,11.05
2022-07-26T01:38:28.448Z,11.20
2022-07-26T01:40:57.730Z,10.93
2022-07-26T01:43:26.863Z,11.15
2022-07-26T01:45:57.526Z,11.07
2022-07-26T01:48:27.731Z,11.10
2022-07-26T01:50:57.059Z,11.05
2022-07-26T01:53:28.174Z,11.43
2022-07-26T01:55:57.439Z,11.65
2022-07-26T01:58:26.598Z,11.48
2022-07-26T02:00:55.873Z,11.35
2022-07-26T02:03:24.903Z,11.57
2022-07-26T02:05:54.113Z,11.65
2022-07-26T02:08:23.269Z,11.73
2022-07-26T02:11:03.780Z,10.88
2022-07-26T02:13:35.383Z,10.57
2022-07-26T02:16:07.790Z,11.13
2022-07-26T02:18:40.077Z,11.57
2022-07-26T02:21:09.856Z,10.25
2022-07-26T02:23:41.628Z,11.63
2022-07-26T02:26:13.629Z,10.90
2022-07-26T02:28:42.907Z,11.13
2022-07-26T02:31:15.435Z,10.88
2022-07-26T02:33:44.990Z,11.35
2022-07-26T02:36:14.164Z,11.40
2022-07-26T02:38:43.315Z,10.98
2022-07-26T02:41:14.461Z,11.38
2022-07-26T02:43:43.602Z,11.25
2022-07-26T02:46:12.876Z,10.77
2022-07-26T02:48:42.303Z,11.50
2022-07-26T02:51:11.810Z,11.10
2022-07-26T02:53:41.142Z,11.32
2022-07-26T02:56:10.929Z,11.13
2022-07-26T02:58:42.034Z,11.38
2022-07-26T03:01:11.505Z,11.70
2022-07-26T03:03:47.226Z,11.52
2022-07-26T03:06:19.869Z,11.80
2022-07-26T03:08:49.326Z,11.80
2022-07-26T03:11:18.485Z,11.52
2022-07-26T03:13:51.897Z,12.52
2022-07-26T03:16:24.783Z,11.00
2022-07-26T03:18:56.623Z,11.35
2022-07-26T03:21:25.870Z,11.50
2022-07-26T03:23:55.345Z,12.05
2022-07-26T03:26:24.940Z,11.43
2022-07-26T03:28:56.155Z,12.30
2022-07-26T03:31:25.901Z,12.35
2022-07-26T03:33:59.885Z,11.48
2022-07-26T03:36:32.358Z,11.35
2022-07-26T03:39:01.722Z,11.65
2022-07-26T03:41:31.231Z,11.25
2022-07-26T03:44:02.225Z,11.52
2022-07-26T03:46:31.666Z,10.15
2022-07-26T03:49:00.992Z,9.82
2022-07-26T03:51:30.546Z,10.07
2022-07-26T03:53:59.618Z,9.75
2022-07-26T03:56:31.390Z,9.43
2022-07-26T03:59:05.289Z,8.93
2022-07-26T04:01:35.401Z,9.45
2022-07-26T04:04:04.975Z,9.88
2022-07-26T04:06:34.177Z,10.00
2022-07-26T04:09:06.463Z,9.57
2022-07-26T04:11:37.427Z,9.10
2022-07-26T04:14:08.998Z,8.60
2022-07-26T04:16:43.286Z,8.95
2022-07-26T04:19:13.248Z,8.90
2022-07-26T04:21:42.975Z,8.15
2022-07-26T04:24:12.527Z,9.85
2022-07-26T04:26:41.738Z,8.75
2022-07-26T04:29:14.738Z,9.85
2022-07-26T04:31:44.153Z,9.63
2022-07-26T04:34:13.258Z,9.43
2022-07-26T04:36:42.451Z,8.90
2022-07-26T04:39:11.881Z,9.63
2022-07-26T04:41:41.109Z,8.05
2022-07-26T04:44:10.718Z,8.20
2022-07-26T04:46:44.950Z,7.55
2022-07-26T04:49:15.558Z,8.88
2022-07-26T04:51:44.963Z,8.02
2022-07-26T04:54:15.275Z,8.90
2022-07-26T04:56:45.692Z,8.95
2022-07-26T04:59:19.792Z,8.77
2022-07-26T05:01:53.013Z,8.02
2022-07-26T05:06:51.082Z,8.27
2022-07-26T05:09:20.419Z,9.35
2022-07-26T05:11:50.923Z,9.20
2022-07-26T05:14:20.273Z,9.20
2022-07-26T05:16:53.623Z,7.18
2022-07-26T05:19:25.125Z,9.23
2022-07-26T05:21:54.437Z,8.60
2022-07-26T05:24:23.602Z,8.20
2022-07-26T05:26:58.268Z,8.02
2022-07-26T05:29:28.375Z,7.97
2022-07-26T05:31:59.429Z,8.45
2022-07-26T05:34:28.835Z,8.40
2022-07-26T05:36:57.988Z,8.55
2022-07-26T05:39:27.261Z,9.13
2022-07-26T05:41:56.419Z,8.98
2022-07-26T05:44:26.522Z,9.00
2022-07-26T05:46:55.871Z,9.23
2022-07-26T05:49:27.113Z,8.90
2022-07-26T05:52:09.971Z,9.15
2022-07-26T05:54:39.135Z,8.85
2022-07-26T05:57:08.407Z,8.98
2022-07-26T05:59:37.626Z,9.68
2022-07-26T06:02:08.028Z,8.70
2022-07-26T06:07:09.490Z,8.63
2022-07-26T06:09:38.657Z,9.15
2022-07-26T06:12:08.781Z,8.52
2022-07-26T06:14:39.553Z,8.27
2022-07-26T06:17:08.859Z,7.90
2022-07-26T06:19:44.287Z,8.60
2022-07-26T06:22:16.638Z,8.57
2022-07-26T06:24:45.796Z,9.23
2022-07-26T06:27:15.120Z,8.20
2022-07-26T06:29:47.978Z,8.27
2022-07-26T06:32:17.572Z,8.63
2022-07-26T06:34:48.708Z,8.43
2022-07-26T06:37:18.109Z,8.80
2022-07-26T06:39:47.195Z,8.95
2022-07-26T06:42:16.474Z,9.02
2022-07-26T06:44:45.566Z,7.43
2022-07-26T06:47:14.893Z,8.50
2022-07-26T06:49:44.395Z,9.38
2022-07-26T06:52:15.638Z,5.53
2022-07-26T06:54:45.357Z,8.10
2022-07-26T06:57:14.831Z,7.88
2022-07-26T06:59:46.427Z,8.70
2022-07-26T07:02:16.028Z,8.95
2022-07-26T07:04:45.513Z,8.98
2022-07-26T07:07:16.812Z,7.68
2022-07-26T07:09:46.128Z,8.70
2022-07-26T07:12:15.397Z,8.52
2022-07-26T07:14:44.756Z,8.75
2022-07-26T07:17:19.932Z,8.30
2022-07-26T07:19:49.793Z,9.13
2022-07-26T07:22:21.048Z,9.30
2022-07-26T07:27:27.324Z,8.60
2022-07-26T07:29:56.742Z,8.20
2022-07-26T07:32:26.852Z,9.18
2022-07-26T07:34:57.788Z,9.25
2022-07-26T07:37:28.923Z,9.45
2022-07-26T07:40:18.207Z,8.63
2022-07-26T07:42:47.345Z,8.98
2022-07-26T07:45:16.898Z,9.32
2022-07-26T07:47:46.514Z,8.23
2022-07-26T07:50:15.863Z,9.35
2022-07-26T07:52:49.471Z,9.00
2022-07-26T07:55:36.355Z,7.22
2022-07-26T07:58:09.244Z,7.88
2022-07-26T08:00:39.147Z,9.27
2022-07-26T08:03:08.578Z,9.23
2022-07-26T08:05:40.438Z,8.98
2022-07-26T08:08:11.949Z,8.70
2022-07-26T08:10:51.701Z,9.35
2022-07-26T08:13:22.257Z,7.72
2022-07-26T08:15:52.168Z,9.20
2022-07-26T08:18:22.746Z,8.35
2022-07-26T08:23:24.705Z,8.55
2022-07-26T08:25:59.791Z,9.27
2022-07-26T08:28:48.613Z,9.50
2022-07-26T08:31:21.801Z,9.35
2022-07-26T08:33:51.227Z,9.82
2022-07-26T08:36:22.971Z,9.48
2022-07-26T08:38:54.377Z,9.40
2022-07-26T08:43:53.882Z,8.82
2022-07-26T08:46:27.052Z,9.30
2022-07-26T08:48:57.397Z,8.82
2022-07-26T08:51:27.931Z,9.52
2022-07-26T08:54:05.672Z,10.27
2022-07-26T08:56:37.437Z,9.95
2022-07-26T08:59:07.857Z,9.68
2022-07-26T09:01:37.209Z,9.82
2022-07-26T09:04:31.751Z,10.70
2022-07-26T09:07:07.577Z,10.00
2022-07-26T09:09:41.372Z,10.20
2022-07-26T09:12:18.709Z,9.68
2022-07-26T09:14:50.603Z,9.50
2022-07-26T09:20:09.186Z,9.70
2022-07-26T09:22:38.973Z,9.90
2022-07-26T09:25:23.705Z,9.75
2022-07-26T09:27:53.709Z,9.85
2022-07-26T09:30:23.587Z,9.15
2022-07-26T09:33:02.164Z,9.95
2022-07-26T09:35:51.146Z,9.18
2022-07-26T09:38:21.911Z,9.38
2022-07-26T09:40:55.011Z,10.10
2022-07-26T09:43:24.912Z,9.75
2022-07-26T09:46:10.436Z,9.63
2022-07-26T09:49:08.215Z,10.00
2022-07-26T09:51:41.651Z,10.10
2022-07-26T09:54:12.318Z,10.15
2022-07-26T09:56:52.670Z,9.88
2022-07-26T09:59:24.196Z,9.27
2022-07-26T10:01:56.976Z,10.00
2022-07-26T10:04:27.387Z,9.48
2022-07-26T10:06:57.739Z,9.87
2022-07-26T10:09:27.953Z,9.30
2022-07-26T10:12:03.854Z,9.47
2022-07-26T10:14:45.405Z,10.18
2022-07-26T10:17:46.876Z,9.52
2022-07-26T10:20:40.963Z,9.32
2022-07-26T10:23:39.067Z,8.85
2022-07-26T10:26:10.877Z,9.70
2022-07-26T10:28:43.623Z,9.52
2022-07-26T10:31:34.335Z,9.30
2022-07-26T10:34:04.342Z,8.70
2022-07-26T10:36:36.997Z,9.90
2022-07-26T10:39:13.241Z,10.05
2022-07-26T10:41:45.361Z,9.77
2022-07-26T10:44:25.137Z,9.57
2022-07-26T10:47:15.403Z,10.07
2022-07-26T10:49:55.100Z,10.05
2022-07-26T10:52:27.580Z,9.63
2022-07-26T10:55:18.861Z,10.25
2022-07-26T10:57:50.050Z,10.63
2022-07-26T11:00:24.791Z,10.45
2022-07-26T11:02:59.953Z,10.40
2022-07-26T11:05:34.507Z,10.25
2022-07-26T11:08:08.745Z,10.30
2022-07-26T11:10:40.713Z,9.88
2022-07-26T11:13:12.791Z,10.13
2022-07-26T11:15:46.640Z,9.73
2022-07-26T11:18:23.855Z,9.75
2022-07-26T11:20:58.391Z,10.30
2022-07-26T11:23:31.675Z,10.05
2022-07-26T11:26:19.914Z,10.15
2022-07-26T11:29:06.128Z,10.18
2022-07-26T11:31:49.327Z,9.98
2022-07-26T11:34:23.744Z,10.02
2022-07-26T11:36:55.116Z,9.80
2022-07-26T11:39:27.181Z,10.27
2022-07-26T11:41:59.965Z,10.27
2022-07-26T11:44:30.507Z,10.32
2022-07-26T11:47:02.558Z,9.90
2022-07-26T11:50:00.144Z,10.38
2022-07-26T11:52:25.525Z,11.13
2022-07-26T11:54:56.339Z,10.18
2022-07-26T11:57:31.087Z,10.70
2022-07-26T12:00:01.691Z,10.75
2022-07-26T12:02:42.695Z,10.27
2022-07-26T12:05:16.595Z,10.23
2022-07-26T12:08:00.888Z,9.95
2022-07-26T12:10:30.635Z,10.23
2022-07-26T12:13:10.849Z,9.80
2022-07-26T12:15:48.106Z,9.90
2022-07-26T12:18:27.570Z,9.68
2022-07-26T12:21:06.550Z,9.52
2022-07-26T12:23:44.341Z,9.68
2022-07-26T12:26:26.333Z,9.68
2022-07-26T12:28:56.772Z,10.00
2022-07-26T12:31:31.667Z,10.52
2022-07-26T12:34:03.195Z,10.40
2022-07-26T12:36:35.766Z,10.23
2022-07-26T12:39:05.226Z,10.02
2022-07-26T12:41:35.972Z,9.30
2022-07-26T12:44:05.988Z,10.18
2022-07-26T12:46:35.861Z,10.33
2022-07-26T12:49:07.361Z,10.25
2022-07-26T12:57:47.944Z,9.70
2022-07-26T13:00:19.267Z,10.18
2022-07-26T13:02:48.578Z,8.40
2022-07-26T13:05:18.026Z,10.05
2022-07-26T13:07:47.352Z,10.00
2022-07-26T13:10:34.198Z,9.93
2022-07-26T13:13:08.338Z,9.40
2022-07-26T13:15:38.115Z,8.85
2022-07-26T13:18:09.003Z,9.27
2022-07-26T13:20:39.179Z,9.85
2022-07-26T13:23:11.409Z,5.95
2022-07-26T13:25:41.338Z,7.65
2022-07-26T13:30:44.762Z,7.53
2022-07-26T13:33:16.205Z,5.57
2022-07-26T13:35:45.469Z,5.50
2022-07-26T13:38:19.852Z,8.57
2022-07-26T13:40:50.302Z,7.30
2022-07-26T13:43:22.558Z,6.60
2022-07-26T13:45:51.958Z,5.97
2022-07-26T13:48:21.462Z,7.43
2022-07-26T13:50:50.829Z,6.93
2022-07-26T13:53:20.041Z,8.98
2022-07-26T13:55:49.158Z,5.47
2022-07-26T13:58:21.062Z,5.30
2022-07-26T14:00:52.536Z,6.53
2022-07-26T14:03:21.920Z,6.00
2022-07-26T14:05:51.243Z,7.13
2022-07-26T14:08:20.652Z,6.57
2022-07-26T14:10:50.023Z,8.38
2022-07-26T14:13:19.319Z,7.82
2022-07-26T14:15:48.767Z,8.13
2022-07-26T14:18:20.107Z,7.47
2022-07-26T14:23:18.281Z,7.75
2022-07-26T14:25:47.530Z,7.35
2022-07-26T14:28:16.647Z,6.32
2022-07-26T14:30:46.168Z,7.32
2022-07-26T14:33:15.473Z,7.90
2022-07-26T14:35:47.031Z,7.90
2022-07-26T14:38:23.343Z,7.13
2022-07-26T14:40:55.009Z,8.57
2022-07-26T14:43:24.180Z,8.73
2022-07-26T14:45:54.495Z,8.68
2022-07-26T14:48:51.858Z,8.05
2022-07-26T14:51:14.992Z,8.82
2022-07-26T14:56:13.754Z,8.00
2022-07-26T14:58:43.216Z,8.63
2022-07-26T15:01:13.015Z,6.85
2022-07-26T15:03:42.706Z,6.93
2022-07-26T15:06:11.981Z,9.05
2022-07-26T15:08:43.163Z,8.25
2022-07-26T15:13:41.204Z,5.53
2022-07-26T15:16:10.648Z,5.97
2022-07-26T15:18:39.923Z,6.50
2022-07-26T15:21:09.903Z,6.05
2022-07-26T15:23:39.650Z,8.68
2022-07-26T15:26:11.494Z,6.75
2022-07-26T15:28:40.880Z,6.32
2022-07-26T15:31:12.214Z,8.23
2022-07-26T15:33:41.443Z,7.88
2022-07-26T15:36:11.188Z,8.10
2022-07-26T15:38:44.776Z,8.57
2022-07-26T15:41:16.211Z,6.65
2022-07-26T15:43:49.001Z,7.65
2022-07-26T15:46:19.215Z,8.23
2022-07-26T15:48:49.424Z,8.32
2022-07-26T15:51:19.047Z,8.43
2022-07-26T15:53:48.468Z,9.02
2022-07-26T15:56:19.996Z,8.15
2022-07-26T15:58:49.343Z,8.48
2022-07-26T16:01:19.584Z,9.38
2022-07-26T16:03:50.205Z,10.18
2022-07-26T16:06:19.712Z,10.07
2022-07-26T16:09:14.037Z,9.25
2022-07-26T16:11:40.718Z,10.88
2022-07-26T16:14:09.993Z,9.45
2022-07-26T16:16:39.152Z,9.40
2022-07-26T16:19:09.130Z,9.52
2022-07-26T16:21:39.949Z,9.13
2022-07-26T16:24:12.215Z,8.10
2022-07-26T16:26:43.562Z,6.57
2022-07-26T16:31:45.396Z,8.20
2022-07-26T16:34:18.327Z,9.02
2022-07-26T16:36:59.649Z,7.55
2022-07-26T16:39:29.675Z,7.53
2022-07-26T16:42:06.636Z,8.80
2022-07-26T16:44:37.907Z,7.68
2022-07-26T16:47:07.282Z,9.00
2022-07-26T16:49:36.447Z,8.57
2022-07-26T16:52:07.965Z,8.95
2022-07-26T16:54:37.292Z,8.00
2022-07-26T16:57:08.481Z,7.28
2022-07-26T16:59:37.651Z,8.50
2022-07-26T17:02:08.544Z,8.88
2022-07-26T17:04:37.740Z,9.07
2022-07-26T17:09:57.167Z,8.32
2022-07-26T17:12:28.630Z,8.48
2022-07-26T17:14:58.130Z,8.38
2022-07-26T17:17:27.864Z,8.70
2022-07-26T17:19:57.141Z,9.18
2022-07-26T17:22:26.602Z,10.45
2022-07-26T17:24:55.841Z,9.07
2022-07-26T17:27:25.348Z,9.40
2022-07-26T17:29:59.858Z,9.63
2022-07-26T17:32:33.019Z,9.75
2022-07-26T17:35:03.862Z,6.88
2022-07-26T17:37:34.534Z,9.63
2022-07-26T17:40:04.564Z,9.10
2022-07-26T17:42:36.986Z,9.23
2022-07-26T17:45:09.884Z,8.88
2022-07-26T17:47:39.254Z,9.93
2022-07-26T17:52:59.851Z,9.35
2022-07-26T17:55:29.188Z,8.80
2022-07-26T17:57:58.497Z,8.77
2022-07-26T18:00:29.727Z,9.18
2022-07-26T18:02:59.697Z,9.18
2022-07-26T18:05:34.881Z,9.80
2022-07-26T18:08:06.564Z,7.80
2022-07-26T18:10:35.772Z,10.60
2022-07-26T18:13:04.931Z,9.65
2022-07-26T18:15:36.229Z,9.98
2022-07-26T18:18:07.325Z,9.68
2022-07-26T18:20:36.574Z,10.13
2022-07-26T18:23:07.127Z,10.63
2022-07-26T18:25:36.712Z,10.27
2022-07-26T18:28:07.245Z,10.50
2022-07-26T18:30:39.457Z,10.63
2022-07-26T18:33:11.501Z,11.20
2022-07-26T18:35:41.046Z,30.17
2022-07-26T18:38:10.574Z,10.68
2022-07-26T18:40:40.018Z,10.10
2022-07-26T18:43:09.311Z,10.10
2022-07-26T18:45:40.588Z,10.70
2022-07-26T18:48:10.139Z,10.68
2022-07-26T18:50:40.592Z,10.52
2022-07-26T18:53:13.006Z,11.35
2022-07-26T18:55:44.466Z,11.05
2022-07-26T18:58:15.591Z,12.05
2022-07-26T19:00:47.469Z,11.27
2022-07-26T19:03:17.321Z,11.50
2022-07-26T19:05:46.549Z,11.30
2022-07-26T19:08:16.030Z,11.13
2022-07-26T19:10:46.066Z,10.70
2022-07-26T19:13:15.482Z,11.35
2022-07-26T19:15:46.612Z,11.93
2022-07-26T19:18:16.126Z,13.05
2022-07-26T19:20:45.659Z,12.10
2022-07-26T19:23:14.989Z,12.82
2022-07-26T19:25:44.423Z,11.68
2022-07-26T19:28:15.234Z,10.75
2022-07-26T19:30:46.881Z,11.63
2022-07-26T19:33:16.896Z,11.77
2022-07-26T19:35:46.237Z,11.40
2022-07-26T19:38:16.425Z,11.10
2022-07-26T19:40:46.037Z,11.23
2022-07-26T19:43:15.313Z,11.70
2022-07-26T19:45:46.716Z,10.88
2022-07-26T19:48:16.489Z,11.60
2022-07-26T19:50:45.738Z,11.27
2022-07-26T19:53:17.909Z,11.90
2022-07-26T19:55:47.404Z,11.90
2022-07-26T19:58:16.718Z,12.02
2022-07-26T20:00:48.111Z,10.73
2022-07-26T20:05:46.221Z,11.73
2022-07-26T20:08:15.551Z,11.25
2022-07-26T20:10:44.769Z,11.32
2022-07-26T20:13:14.072Z,11.63
2022-07-26T20:15:43.373Z,11.75
2022-07-26T20:18:14.671Z,11.85
2022-07-26T20:20:44.480Z,11.60
2022-07-26T20:23:13.642Z,12.48
2022-07-26T20:25:42.838Z,11.75
2022-07-26T20:28:14.753Z,12.85
2022-07-26T20:30:47.758Z,12.65
2022-07-26T20:33:19.146Z,12.60
2022-07-26T20:38:24.718Z,11.95
2022-07-26T20:40:54.004Z,11.55
2022-07-26T20:43:23.281Z,12.50
2022-07-26T20:45:56.515Z,12.15
2022-07-26T20:48:27.948Z,12.45
2022-07-26T20:50:57.444Z,12.57
2022-07-26T20:53:26.529Z,12.40
2022-07-26T20:55:55.811Z,12.52
2022-07-26T20:58:25.249Z,12.15
2022-07-26T21:00:54.533Z,12.30
2022-07-26T21:03:24.102Z,11.98
2022-07-26T21:05:55.404Z,12.77
2022-07-26T21:08:24.834Z,11.95
2022-07-26T21:10:53.972Z,12.43
2022-07-26T21:13:24.349Z,12.23
2022-07-26T21:15:53.903Z,11.68
2022-07-26T21:18:23.324Z,12.98
2022-07-26T21:20:54.453Z,12.88
2022-07-26T21:23:23.661Z,12.77
2022-07-26T21:25:58.143Z,13.13
2022-07-26T21:28:30.922Z,13.45
2022-07-26T21:31:00.087Z,13.20
2022-07-26T21:33:29.403Z,13.95
2022-07-26T21:36:00.546Z,13.45
2022-07-26T21:38:31.543Z,13.20
2022-07-26T21:41:01.007Z,14.15
2022-07-26T21:43:30.252Z,14.80
2022-07-26T21:45:59.635Z,13.38
2022-07-26T21:48:29.100Z,15.00
2022-07-26T21:51:00.318Z,14.65
2022-07-26T21:53:29.587Z,14.45
2022-07-26T21:55:58.975Z,14.25
2022-07-26T21:58:28.435Z,14.98
2022-07-26T22:01:03.066Z,15.40
2022-07-26T22:03:38.092Z,15.13
2022-07-26T22:08:38.937Z,14.60
2022-07-26T22:11:08.078Z,14.80
2022-07-26T22:13:37.910Z,14.75
2022-07-26T22:16:08.579Z,15.30
2022-07-26T22:18:40.202Z,15.02
2022-07-26T22:23:40.340Z,14.65
2022-07-26T22:26:09.462Z,14.43
2022-07-26T22:28:38.921Z,14.75
2022-07-26T22:31:08.573Z,14.38
2022-07-26T22:33:39.150Z,16.00
2022-07-26T22:36:13.799Z,18.73
2022-07-26T22:38:44.144Z,15.48
2022-07-26T22:41:13.604Z,15.95
2022-07-26T22:43:44.463Z,16.27
2022-07-26T22:46:14.188Z,15.90
2022-07-26T22:48:47.969Z,15.23
2022-07-26T22:51:20.584Z,15.82
2022-07-26T22:53:49.736Z,15.90
2022-07-26T22:56:19.761Z,16.60
2022-07-26T22:58:49.459Z,16.33
2022-07-26T23:01:18.596Z,17.85
2022-07-26T23:03:49.783Z,16.67
2022-07-26T23:06:32.016Z,17.13
2022-07-26T23:11:32.393Z,16.23
2022-07-26T23:14:01.816Z,17.60
2022-07-26T23:16:31.105Z,16.45
2022-07-26T23:19:00.968Z,16.73
2022-07-26T23:21:31.944Z,16.40
2022-07-26T23:24:01.082Z,17.00
2022-07-26T23:26:30.365Z,17.08
2022-07-26T23:29:00.565Z,16.67
2022-07-26T23:31:30.365Z,15.60
2022-07-26T23:33:59.557Z,16.42
2022-07-26T23:36:32.194Z,16.25
2022-07-26T23:39:02.156Z,17.23
2022-07-26T23:41:31.596Z,16.60
2022-07-26T23:44:00.784Z,17.45
2022-07-26T23:46:30.059Z,18.15
2022-07-26T23:49:00.172Z,17.33
2022-07-26T23:51:31.393Z,17.63
2022-07-26T23:54:00.685Z,17.55
2022-07-26T23:56:29.803Z,16.83
2022-07-26T23:58:59.011Z,17.08
